aviador You're here:

KSBA Decoded Metar

SANTA BARBARA in CA, USA
Report Time2017-07-24 19:53:00
UTC Time2017-07-24 20:46:24
Flight Rules vfr VFR
Wind180° at 08 kt
W.Decomp.*RWY 15: 7.7 kt HW 2.2 kt RCW
RWY 25: 0.8 kt HW 8 kt LCW
W.Rank180° ranks 27
Current wind is above 180° avg. (4.9)
Visibility9999 m
Phenomena:N/A
Clouds:N/A
Expected CloudBase > 1,600 ft AGL from Temp-Dew spread
CeilingNone
Temp22°C (ISA +7)
Dew Point18°C (78% RH)
AAT21.9°C
QNH1013 hPa
Density Alt1,102 ft
Elevation10 ft
Report Wrong Elevation
Raw Report
METAR KSBA 241953Z 18008KT 10SM CLR 22/18 A2992 RMK AO2 SLP132 T02220178=

Extra information for KSBA:More info

Metar Taf Metar & Taf Last 4 Metars F.Rules Stats Wind Profile Meteogram Temp Stats Airport Information Weather charts Add Link Nearby VenuesMetar ALERT Operation Metar Decoded Social comments

AIRNAV info for KSBA